IBS16PJ LEPA-LEMD
Flight info
| Callsign | IBS16PJ |
|---|---|
| Flight time | 0h 51m |
| Altitude | 31000 |
| Route | EPAMA N733 VLC DCT CLS DCT WALLY DCT CATON DCT CENTA DCT PRADO |
| Aircraft | A320/M-SDE3FGHIRWY/LB1 |
Departure
| Time | 2026-04-30 20:13 |
|---|---|
| Airport | Palma de Mallorca Airport (LEPA) |
Arrival
| Time | 2026-04-30 21:05 |
|---|---|
| Airport | Adolfo Suárez Madrid–Barajas Airport (LEMD) |
| Time | Latitude | Longitude | Altitude | Speed | Heading |
|---|---|---|---|---|---|
| 2026-04-30 19:38 | 39.54693 | 2.73387 | 39 ft | 0 kts | 240° |
| 2026-04-30 20:05 | 39.54698 | 2.73397 | 38 ft | 4 kts | 239° |
| 2026-04-30 20:06 | 39.54713 | 2.73427 | 35 ft | 4 kts | 232° |
| 2026-04-30 20:06 | 39.54731 | 2.73452 | 36 ft | 4 kts | 208° |
| 2026-04-30 20:06 | 39.54750 | 2.73456 | 37 ft | 1 kts | 151° |
| 2026-04-30 20:08 | 39.54731 | 2.73470 | 38 ft | 9 kts | 150° |
| 2026-04-30 20:09 | 39.54682 | 2.73506 | 37 ft | 7 kts | 150° |
| 2026-04-30 20:09 | 39.54631 | 2.73552 | 38 ft | 10 kts | 127° |
| 2026-04-30 20:09 | 39.54546 | 2.73614 | 38 ft | 12 kts | 232° |
| 2026-04-30 20:10 | 39.54417 | 2.73337 | 38 ft | 17 kts | 238° |
| 2026-04-30 20:10 | 39.54362 | 2.73220 | 38 ft | 10 kts | 238° |
| 2026-04-30 20:10 | 39.54334 | 2.73162 | 38 ft | 5 kts | 235° |
| 2026-04-30 20:11 | 39.54298 | 2.73159 | 38 ft | 1 kts | 140° |
| 2026-04-30 20:11 | 39.54295 | 2.73165 | 38 ft | 0 kts | 129° |
| 2026-04-30 20:11 | 39.54294 | 2.73166 | 38 ft | 2 kts | 129° |
| 2026-04-30 20:12 | 39.54269 | 2.73349 | 38 ft | 13 kts | 91° |
| 2026-04-30 20:12 | 39.54271 | 2.73470 | 38 ft | 14 kts | 77° |
| 2026-04-30 20:12 | 39.54334 | 2.73608 | 38 ft | 28 kts | 58° |
| 2026-04-30 20:13 | 39.54554 | 2.74074 | 38 ft | 101 kts | 59° |
| 2026-04-30 20:13 | 39.55042 | 2.75109 | 44 ft | 165 kts | 59° |
| 2026-04-30 20:13 | 39.55643 | 2.76411 | 772 ft | 171 kts | 59° |
| 2026-04-30 20:13 | 39.56274 | 2.77768 | 1542 ft | 180 kts | 59° |
| 2026-04-30 20:14 | 39.56941 | 2.79211 | 2313 ft | 195 kts | 60° |
| 2026-04-30 20:14 | 39.57657 | 2.80792 | 3083 ft | 213 kts | 59° |
| 2026-04-30 20:14 | 39.58441 | 2.82527 | 3849 ft | 233 kts | 59° |
| 2026-04-30 20:14 | 39.59275 | 2.84364 | 4599 ft | 239 kts | 58° |
| 2026-04-30 20:15 | 39.60138 | 2.86257 | 5357 ft | 253 kts | 58° |
| 2026-04-30 20:15 | 39.61069 | 2.88299 | 6114 ft | 264 kts | 58° |
| 2026-04-30 20:15 | 39.62026 | 2.90293 | 6865 ft | 259 kts | 49° |
| 2026-04-30 20:15 | 39.63475 | 2.91602 | 7583 ft | 257 kts | 13° |
| 2026-04-30 20:16 | 39.65217 | 2.91562 | 8326 ft | 253 kts | 336° |
| 2026-04-30 20:16 | 39.66572 | 2.90210 | 9086 ft | 248 kts | 300° |
| 2026-04-30 20:16 | 39.67165 | 2.88134 | 9849 ft | 246 kts | 280° |
| 2026-04-30 20:16 | 39.67473 | 2.85942 | 10580 ft | 248 kts | 278° |
| 2026-04-30 20:17 | 39.67788 | 2.83740 | 11308 ft | 249 kts | 279° |
| 2026-04-30 20:17 | 39.67978 | 2.81513 | 11971 ft | 252 kts | 266° |
| 2026-04-30 20:17 | 39.67886 | 2.79195 | 12470 ft | 262 kts | 265° |
| 2026-04-30 20:17 | 39.67769 | 2.76786 | 12986 ft | 273 kts | 265° |
| 2026-04-30 20:18 | 39.67642 | 2.74282 | 13508 ft | 283 kts | 265° |
| 2026-04-30 20:18 | 39.67511 | 2.71692 | 13966 ft | 295 kts | 265° |
| 2026-04-30 20:18 | 39.67370 | 2.68934 | 14063 ft | 318 kts | 265° |
| 2026-04-30 20:18 | 39.67219 | 2.65963 | 14087 ft | 342 kts | 265° |
| 2026-04-30 20:19 | 39.67062 | 2.62783 | 14085 ft | 364 kts | 265° |
| 2026-04-30 20:19 | 39.66902 | 2.59454 | 14083 ft | 382 kts | 266° |
| 2026-04-30 20:19 | 39.66733 | 2.55949 | 14082 ft | 386 kts | 266° |
| 2026-04-30 20:19 | 39.66563 | 2.52471 | 14385 ft | 387 kts | 265° |
| 2026-04-30 20:20 | 39.66390 | 2.49004 | 14856 ft | 392 kts | 265° |
| 2026-04-30 20:20 | 39.66212 | 2.45457 | 15335 ft | 396 kts | 265° |
| 2026-04-30 20:20 | 39.66032 | 2.41883 | 15830 ft | 398 kts | 265° |
| 2026-04-30 20:20 | 39.65848 | 2.38286 | 16329 ft | 401 kts | 265° |
| 2026-04-30 20:21 | 39.65663 | 2.34668 | 16836 ft | 403 kts | 265° |
| 2026-04-30 20:21 | 39.65478 | 2.31027 | 17351 ft | 405 kts | 266° |
| 2026-04-30 20:21 | 39.65293 | 2.27377 | 17876 ft | 406 kts | 265° |
| 2026-04-30 20:21 | 39.65103 | 2.23713 | 18401 ft | 408 kts | 265° |
| 2026-04-30 20:22 | 39.64908 | 2.20035 | 18856 ft | 409 kts | 265° |
| 2026-04-30 20:22 | 39.64711 | 2.16351 | 19334 ft | 410 kts | 265° |
| 2026-04-30 20:22 | 39.64513 | 2.12660 | 19814 ft | 411 kts | 265° |
| 2026-04-30 20:22 | 39.64317 | 2.08956 | 20308 ft | 411 kts | 265° |
| 2026-04-30 20:23 | 39.64118 | 2.05256 | 20793 ft | 411 kts | 265° |
| 2026-04-30 20:23 | 39.63918 | 2.01555 | 21295 ft | 411 kts | 265° |
| 2026-04-30 20:23 | 39.63716 | 1.97805 | 21811 ft | 411 kts | 265° |
| 2026-04-30 20:23 | 39.63519 | 1.94151 | 22324 ft | 411 kts | 265° |
| 2026-04-30 20:24 | 39.63320 | 1.90457 | 22862 ft | 410 kts | 265° |
| 2026-04-30 20:24 | 39.63119 | 1.86770 | 23400 ft | 410 kts | 265° |
| 2026-04-30 20:24 | 39.62917 | 1.83090 | 23895 ft | 409 kts | 265° |
| 2026-04-30 20:24 | 39.62712 | 1.79417 | 24351 ft | 408 kts | 265° |
| 2026-04-30 20:25 | 39.62300 | 1.72109 | 25285 ft | 404 kts | 265° |
| 2026-04-30 20:25 | 39.62092 | 1.68481 | 25753 ft | 403 kts | 265° |
| 2026-04-30 20:26 | 39.61675 | 1.61280 | 26751 ft | 398 kts | 265° |
| 2026-04-30 20:26 | 39.61264 | 1.54155 | 27771 ft | 394 kts | 265° |
| 2026-04-30 20:26 | 39.61060 | 1.50623 | 28303 ft | 391 kts | 264° |
| 2026-04-30 20:27 | 39.60647 | 1.43647 | 29382 ft | 385 kts | 264° |
| 2026-04-30 20:27 | 39.60237 | 1.36787 | 30449 ft | 378 kts | 264° |
| 2026-04-30 20:28 | 39.59861 | 1.30014 | 31058 ft | 381 kts | 264° |
| 2026-04-30 20:28 | 39.59472 | 1.23005 | 31094 ft | 398 kts | 264° |
| 2026-04-30 20:29 | 39.59069 | 1.15690 | 31094 ft | 415 kts | 264° |
| 2026-04-30 20:30 | 39.58409 | 1.04207 | 31100 ft | 435 kts | 264° |
| 2026-04-30 20:31 | 39.57020 | 0.80601 | 31100 ft | 438 kts | 264° |
| 2026-04-30 20:32 | 39.55812 | 0.60954 | 31102 ft | 437 kts | 264° |
| 2026-04-30 20:33 | 39.55084 | 0.49164 | 31099 ft | 438 kts | 264° |
| 2026-04-30 20:34 | 39.54347 | 0.37380 | 31113 ft | 438 kts | 264° |
| 2026-04-30 20:35 | 39.53593 | 0.25591 | 31105 ft | 438 kts | 264° |
| 2026-04-30 20:35 | 39.52825 | 0.13809 | 31108 ft | 438 kts | 263° |
| 2026-04-30 20:36 | 39.52302 | 0.05951 | 31106 ft | 438 kts | 263° |
| 2026-04-30 20:37 | 39.51507 | -0.05822 | 31121 ft | 438 kts | 263° |
| 2026-04-30 20:37 | 39.50974 | -0.13680 | 31118 ft | 438 kts | 263° |
| 2026-04-30 20:38 | 39.50441 | -0.21531 | 31117 ft | 438 kts | 263° |
| 2026-04-30 20:38 | 39.49894 | -0.29385 | 31120 ft | 438 kts | 263° |
| 2026-04-30 20:39 | 39.49071 | -0.41154 | 31122 ft | 438 kts | 263° |
| 2026-04-30 20:40 | 39.50616 | -0.52773 | 31123 ft | 447 kts | 292° |
| 2026-04-30 20:40 | 39.53676 | -0.59821 | 31118 ft | 450 kts | 296° |
| 2026-04-30 20:41 | 39.58335 | -0.70376 | 31108 ft | 450 kts | 296° |
| 2026-04-30 20:41 | 39.61425 | -0.77428 | 31130 ft | 450 kts | 296° |
| 2026-04-30 20:42 | 39.64533 | -0.84496 | 31114 ft | 451 kts | 296° |
| 2026-04-30 20:43 | 39.69193 | -0.95120 | 31089 ft | 452 kts | 296° |
| 2026-04-30 20:43 | 39.72295 | -1.02222 | 31081 ft | 452 kts | 296° |
| 2026-04-30 20:44 | 39.76906 | -1.12852 | 31079 ft | 452 kts | 296° |
| 2026-04-30 20:45 | 39.83118 | -1.27110 | 31090 ft | 454 kts | 296° |
| 2026-04-30 20:45 | 39.86226 | -1.34288 | 31098 ft | 456 kts | 296° |
| 2026-04-30 20:46 | 39.92429 | -1.48697 | 31118 ft | 456 kts | 296° |
| 2026-04-30 20:47 | 39.97090 | -1.59531 | 31126 ft | 457 kts | 296° |
| 2026-04-30 20:48 | 40.01749 | -1.70394 | 31121 ft | 458 kts | 295° |
| 2026-04-30 20:48 | 40.04842 | -1.77673 | 31123 ft | 459 kts | 295° |
| 2026-04-30 20:49 | 40.06391 | -1.81324 | 30884 ft | 462 kts | 296° |
| 2026-04-30 20:49 | 40.07948 | -1.84990 | 30414 ft | 462 kts | 296° |
| 2026-04-30 20:49 | 40.09511 | -1.88665 | 29873 ft | 464 kts | 296° |
| 2026-04-30 20:50 | 40.12656 | -1.96073 | 28788 ft | 468 kts | 296° |
| 2026-04-30 20:50 | 40.14234 | -1.99805 | 28250 ft | 470 kts | 296° |
| 2026-04-30 20:50 | 40.15821 | -2.03556 | 27723 ft | 472 kts | 296° |
| 2026-04-30 20:50 | 40.17411 | -2.07315 | 27211 ft | 473 kts | 296° |
| 2026-04-30 20:51 | 40.19005 | -2.11087 | 26706 ft | 475 kts | 296° |
| 2026-04-30 20:51 | 40.22194 | -2.18654 | 25704 ft | 473 kts | 296° |
| 2026-04-30 20:51 | 40.23781 | -2.22420 | 25220 ft | 471 kts | 296° |
| 2026-04-30 20:52 | 40.24799 | -2.24915 | 24923 ft | 468 kts | 293° |
| 2026-04-30 20:52 | 40.25858 | -2.28895 | 24454 ft | 461 kts | 280° |
| 2026-04-30 20:52 | 40.26194 | -2.37180 | 23508 ft | 455 kts | 268° |
| 2026-04-30 20:53 | 40.26169 | -2.41313 | 22972 ft | 452 kts | 268° |
| 2026-04-30 20:53 | 40.26148 | -2.45406 | 22436 ft | 448 kts | 268° |
| 2026-04-30 20:53 | 40.26127 | -2.49461 | 21918 ft | 444 kts | 268° |
| 2026-04-30 20:54 | 40.26071 | -2.57467 | 20900 ft | 436 kts | 268° |
| 2026-04-30 20:54 | 40.26042 | -2.61417 | 20405 ft | 432 kts | 268° |
| 2026-04-30 20:54 | 40.26024 | -2.65339 | 19917 ft | 429 kts | 268° |
| 2026-04-30 20:55 | 40.26009 | -2.73053 | 18972 ft | 417 kts | 268° |
| 2026-04-30 20:55 | 40.26005 | -2.76810 | 18506 ft | 409 kts | 268° |
| 2026-04-30 20:55 | 40.25998 | -2.80505 | 17989 ft | 402 kts | 268° |
| 2026-04-30 20:56 | 40.25970 | -2.87722 | 16943 ft | 391 kts | 268° |
| 2026-04-30 20:56 | 40.25950 | -2.91252 | 16432 ft | 385 kts | 268° |
| 2026-04-30 20:56 | 40.25914 | -2.98103 | 15434 ft | 363 kts | 268° |
| 2026-04-30 20:57 | 40.25901 | -3.01345 | 14955 ft | 350 kts | 268° |
| 2026-04-30 20:57 | 40.25888 | -3.04475 | 14479 ft | 338 kts | 268° |
| 2026-04-30 20:57 | 40.25868 | -3.07511 | 14014 ft | 328 kts | 268° |
| 2026-04-30 20:58 | 40.25877 | -3.13328 | 12971 ft | 312 kts | 275° |
| 2026-04-30 20:58 | 40.26403 | -3.16060 | 12465 ft | 307 kts | 285° |
| 2026-04-30 20:58 | 40.27041 | -3.18706 | 11959 ft | 302 kts | 285° |
| 2026-04-30 20:58 | 40.27672 | -3.21290 | 11453 ft | 294 kts | 286° |
| 2026-04-30 20:59 | 40.28894 | -3.26272 | 10490 ft | 281 kts | 286° |
| 2026-04-30 20:59 | 40.29481 | -3.28687 | 10014 ft | 276 kts | 286° |
| 2026-04-30 21:00 | 40.30613 | -3.33387 | 8980 ft | 266 kts | 286° |
| 2026-04-30 21:00 | 40.31931 | -3.37781 | 8020 ft | 254 kts | 307° |
| 2026-04-30 21:01 | 40.34493 | -3.40602 | 7055 ft | 233 kts | 321° |
| 2026-04-30 21:01 | 40.35756 | -3.41877 | 6579 ft | 226 kts | 321° |
| 2026-04-30 21:01 | 40.38167 | -3.44313 | 5606 ft | 209 kts | 321° |
| 2026-04-30 21:02 | 40.39297 | -3.45455 | 5110 ft | 201 kts | 321° |
| 2026-04-30 21:02 | 40.40379 | -3.46550 | 4608 ft | 192 kts | 321° |
| 2026-04-30 21:02 | 40.41419 | -3.47602 | 4136 ft | 185 kts | 322° |
| 2026-04-30 21:02 | 40.42414 | -3.48609 | 3638 ft | 177 kts | 322° |
| 2026-04-30 21:03 | 40.43376 | -3.49584 | 3121 ft | 172 kts | 323° |
| 2026-04-30 21:03 | 40.44312 | -3.50532 | 2692 ft | 166 kts | 323° |
| 2026-04-30 21:03 | 40.45196 | -3.51428 | 2473 ft | 156 kts | 323° |
| 2026-04-30 21:03 | 40.46041 | -3.52290 | 2218 ft | 151 kts | 321° |
| 2026-04-30 21:04 | 40.46838 | -3.53114 | 2060 ft | 142 kts | 323° |
| 2026-04-30 21:04 | 40.47607 | -3.53881 | 1929 ft | 135 kts | 323° |
| 2026-04-30 21:04 | 40.48683 | -3.54969 | 1948 ft | 61 kts | 321° |
| 2026-04-30 21:05 | 40.48983 | -3.55275 | 1952 ft | 50 kts | 322° |
| 2026-04-30 21:05 | 40.49190 | -3.55518 | 1957 ft | 34 kts | 298° |
| 2026-04-30 21:05 | 40.49256 | -3.55726 | 1966 ft | 22 kts | 292° |
| 2026-04-30 21:05 | 40.49301 | -3.55879 | 1964 ft | 18 kts | 286° |
| 2026-04-30 21:06 | 40.49302 | -3.56048 | 1959 ft | 20 kts | 268° |
| 2026-04-30 21:06 | 40.49209 | -3.56139 | 1959 ft | 19 kts | 182° |
| 2026-04-30 21:06 | 40.49072 | -3.56139 | 1959 ft | 20 kts | 180° |
| 2026-04-30 21:06 | 40.48943 | -3.56137 | 1959 ft | 8 kts | 179° |
| 2026-04-30 21:07 | 40.48942 | -3.56137 | 1959 ft | 0 kts | 179° |
| 2026-04-30 21:13 | 40.48919 | -3.56137 | 1959 ft | 14 kts | 179° |
| 2026-04-30 21:13 | 40.48797 | -3.56139 | 1959 ft | 17 kts | 196° |
| 2026-04-30 21:13 | 40.48768 | -3.56272 | 1963 ft | 15 kts | 271° |
| 2026-04-30 21:14 | 40.48768 | -3.56413 | 1966 ft | 20 kts | 270° |
| 2026-04-30 21:14 | 40.48768 | -3.56617 | 1973 ft | 22 kts | 269° |
| 2026-04-30 21:14 | 40.48766 | -3.56815 | 1980 ft | 21 kts | 269° |
| 2026-04-30 21:14 | 40.48765 | -3.57008 | 1983 ft | 21 kts | 270° |
| 2026-04-30 21:15 | 40.48766 | -3.57195 | 1984 ft | 20 kts | 270° |
| 2026-04-30 21:15 | 40.48766 | -3.57376 | 1987 ft | 19 kts | 269° |
| 2026-04-30 21:15 | 40.48765 | -3.57549 | 1990 ft | 19 kts | 270° |
| 2026-04-30 21:15 | 40.48766 | -3.57722 | 1992 ft | 19 kts | 270° |
| 2026-04-30 21:16 | 40.48760 | -3.57881 | 1997 ft | 16 kts | 251° |
| 2026-04-30 21:16 | 40.48677 | -3.57924 | 1999 ft | 13 kts | 176° |
| 2026-04-30 21:16 | 40.48604 | -3.57959 | 2000 ft | 11 kts | 236° |
| 2026-04-30 21:16 | 40.48598 | -3.58074 | 2004 ft | 18 kts | 270° |
| 2026-04-30 21:17 | 40.48597 | -3.58231 | 2007 ft | 16 kts | 270° |
| 2026-04-30 21:17 | 40.48596 | -3.58371 | 2011 ft | 16 kts | 269° |
| 2026-04-30 21:17 | 40.48594 | -3.58509 | 2015 ft | 14 kts | 269° |
| 2026-04-30 21:17 | 40.48593 | -3.58618 | 2030 ft | 10 kts | 269° |
| 2026-04-30 21:18 | 40.48592 | -3.58702 | 2030 ft | 8 kts | 269° |
| 2026-04-30 21:18 | 40.48587 | -3.58770 | 2022 ft | 8 kts | 250° |
| 2026-04-30 21:18 | 40.48548 | -3.58864 | 2029 ft | 12 kts | 265° |
| 2026-04-30 21:18 | 40.48546 | -3.58972 | 2027 ft | 11 kts | 269° |
| 2026-04-30 21:19 | 40.48545 | -3.59068 | 2024 ft | 10 kts | 269° |
| 2026-04-30 21:19 | 40.48544 | -3.59147 | 2026 ft | 8 kts | 269° |
| 2026-04-30 21:19 | 40.48552 | -3.59207 | 2032 ft | 6 kts | 306° |
| 2026-04-30 21:19 | 40.48581 | -3.59218 | 2024 ft | 4 kts | 6° |
| 2026-04-30 21:20 | 40.48596 | -3.59197 | 2025 ft | 3 kts | 70° |
| 2026-04-30 21:20 | 40.48597 | -3.59173 | 2026 ft | 2 kts | 89° |
| 2026-04-30 21:20 | 40.48597 | -3.59159 | 2022 ft | 1 kts | 89° |
| 2026-04-30 21:20 | 40.48597 | -3.59157 | 2022 ft | 0 kts | 89° |